Terminal Aerodrome Forecast
Issued by NWS

Home | Current Version | Previous Version | Text Only | Print | Product List | Glossary On
Versions: 1 2 3 4 5 6 7 8 9 10 11 12 13 14 15 16 17 18 19 20 21 22 23 24 25 26 27
000
FTUS43 KGRR 120908 AAC
TAFAZO
TAF AMD
KAZO 120908Z 1209/1306 33017G26KT P6SM -SHSN OVC045
      TEMPO 1209/1211 2SM -SHSN OVC027
     FM121100 32014G23KT 5SM -SHSN OVC035
      TEMPO 1211/1212 2SM -SHSN
     FM122000 31012G18KT 2SM -SHSN OVC035
     FM130400 30006KT 4SM -SHSN OVC015=

USA.gov is the U.S. government's official web portal to all federal, state and local government web resources and services.